sensor_id;sensor_type;location;lat;lon;timestamp;temperature;humidity
52415;DHT22;38340;52.964;6.086;2023-05-10T00:02:09;12.60;99.90
52415;DHT22;38340;52.964;6.086;2023-05-10T00:04:35;12.60;99.90
52415;DHT22;38340;52.964;6.086;2023-05-10T00:07:00;12.50;99.90
52415;DHT22;38340;52.964;6.086;2023-05-10T00:09:26;12.60;99.90
52415;DHT22;38340;52.964;6.086;2023-05-10T00:11:52;12.50;99.90
52415;DHT22;38340;52.964;6.086;2023-05-10T00:14:18;12.50;99.90
52415;DHT22;38340;52.964;6.086;2023-05-10T00:16:44;12.50;99.90
52415;DHT22;38340;52.964;6.086;2023-05-10T00:19:10;12.40;99.90
52415;DHT22;38340;52.964;6.086;2023-05-10T00:21:36;12.50;99.90
52415;DHT22;38340;52.964;6.086;2023-05-10T00:24:02;12.40;99.90
52415;DHT22;38340;52.964;6.086;2023-05-10T00:26:27;12.40;99.90
52415;DHT22;38340;52.964;6.086;2023-05-10T00:28:53;12.40;99.90
52415;DHT22;38340;52.964;6.086;2023-05-10T00:31:19;12.40;99.90
52415;DHT22;38340;52.964;6.086;2023-05-10T00:33:44;12.40;99.90
52415;DHT22;38340;52.964;6.086;2023-05-10T00:36:10;12.40;99.90
52415;DHT22;38340;52.964;6.086;2023-05-10T00:38:36;12.40;99.90
52415;DHT22;38340;52.964;6.086;2023-05-10T00:41:02;12.30;99.90
52415;DHT22;38340;52.964;6.086;2023-05-10T00:43:28;12.30;99.90
52415;DHT22;38340;52.964;6.086;2023-05-10T00:45:54;12.20;99.90
52415;DHT22;38340;52.964;6.086;2023-05-10T00:48:20;12.30;99.90
52415;DHT22;38340;52.964;6.086;2023-05-10T00:50:46;12.20;99.90
52415;DHT22;38340;52.964;6.086;2023-05-10T00:53:12;12.20;99.90
52415;DHT22;38340;52.964;6.086;2023-05-10T00:55:38;12.30;99.90
52415;DHT22;38340;52.964;6.086;2023-05-10T00:58:04;12.20;99.90
52415;DHT22;38340;52.964;6.086;2023-05-10T01:00:32;12.30;99.90
52415;DHT22;38340;52.964;6.086;2023-05-10T01:02:58;12.30;99.90
52415;DHT22;38340;52.964;6.086;2023-05-10T01:05:25;12.30;99.90
52415;DHT22;38340;52.964;6.086;2023-05-10T01:07:50;12.30;99.90
52415;DHT22;38340;52.964;6.086;2023-05-10T01:10:16;12.30;99.90
52415;DHT22;38340;52.964;6.086;2023-05-10T01:12:45;12.30;99.90
52415;DHT22;38340;52.964;6.086;2023-05-10T01:15:12;12.30;99.90
52415;DHT22;38340;52.964;6.086;2023-05-10T01:17:40;12.30;99.90
52415;DHT22;38340;52.964;6.086;2023-05-10T01:20:08;12.30;99.90
52415;DHT22;38340;52.964;6.086;2023-05-10T01:23:03;12.30;99.90
52415;DHT22;38340;52.964;6.086;2023-05-10T01:30:52;12.20;99.90
52415;DHT22;38340;52.964;6.086;2023-05-10T01:33:49;12.30;99.90
52415;DHT22;38340;52.964;6.086;2023-05-10T01:36:30;12.30;99.90
52415;DHT22;38340;52.964;6.086;2023-05-10T01:39:02;12.20;99.90
52415;DHT22;38340;52.964;6.086;2023-05-10T01:41:45;12.30;99.90
52415;DHT22;38340;52.964;6.086;2023-05-10T01:44:39;12.20;99.90
52415;DHT22;38340;52.964;6.086;2023-05-10T01:47:12;12.30;99.90
52415;DHT22;38340;52.964;6.086;2023-05-10T01:49:43;12.20;99.90
52415;DHT22;38340;52.964;6.086;2023-05-10T01:52:12;12.30;99.90
52415;DHT22;38340;52.964;6.086;2023-05-10T01:54:44;12.20;99.90
52415;DHT22;38340;52.964;6.086;2023-05-10T01:57:13;12.20;99.90
52415;DHT22;38340;52.964;6.086;2023-05-10T01:59:40;12.10;99.90
52415;DHT22;38340;52.964;6.086;2023-05-10T02:02:08;12.20;99.90
52415;DHT22;38340;52.964;6.086;2023-05-10T02:04:39;12.20;99.90
52415;DHT22;38340;52.964;6.086;2023-05-10T02:07:06;12.20;99.90
52415;DHT22;38340;52.964;6.086;2023-05-10T02:09:34;12.20;99.90
52415;DHT22;38340;52.964;6.086;2023-05-10T02:12:02;12.10;99.90
52415;DHT22;38340;52.964;6.086;2023-05-10T02:14:32;12.20;99.90
52415;DHT22;38340;52.964;6.086;2023-05-10T02:16:59;12.20;99.90
52415;DHT22;38340;52.964;6.086;2023-05-10T02:19:28;12.20;99.90
52415;DHT22;38340;52.964;6.086;2023-05-10T02:21:55;12.10;99.90
52415;DHT22;38340;52.964;6.086;2023-05-10T02:24:22;12.10;99.90
52415;DHT22;38340;52.964;6.086;2023-05-10T02:26:51;12.10;99.90
52415;DHT22;38340;52.964;6.086;2023-05-10T02:29:19;12.10;99.90
52415;DHT22;38340;52.964;6.086;2023-05-10T02:31:46;12.20;99.90
52415;DHT22;38340;52.964;6.086;2023-05-10T02:34:12;12.20;99.90
52415;DHT22;38340;52.964;6.086;2023-05-10T02:36:40;12.10;99.90
52415;DHT22;38340;52.964;6.086;2023-05-10T02:39:06;12.10;99.90
52415;DHT22;38340;52.964;6.086;2023-05-10T02:41:39;12.10;99.90
52415;DHT22;38340;52.964;6.086;2023-05-10T02:44:07;12.10;99.90
52415;DHT22;38340;52.964;6.086;2023-05-10T02:46:33;12.10;99.90
52415;DHT22;38340;52.964;6.086;2023-05-10T02:49:00;12.20;99.90
52415;DHT22;38340;52.964;6.086;2023-05-10T02:51:30;12.10;99.90
52415;DHT22;38340;52.964;6.086;2023-05-10T02:54:27;12.10;99.90
52415;DHT22;38340;52.964;6.086;2023-05-10T02:56:57;12.20;99.90
52415;DHT22;38340;52.964;6.086;2023-05-10T02:59:24;12.20;99.90
52415;DHT22;38340;52.964;6.086;2023-05-10T03:01:50;12.20;99.90
52415;DHT22;38340;52.964;6.086;2023-05-10T03:04:16;12.20;99.90
52415;DHT22;38340;52.964;6.086;2023-05-10T03:06:42;12.10;99.90
52415;DHT22;38340;52.964;6.086;2023-05-10T03:09:08;12.10;99.90
52415;DHT22;38340;52.964;6.086;2023-05-10T03:11:55;12.20;99.90
52415;DHT22;38340;52.964;6.086;2023-05-10T03:14:42;12.20;99.90
52415;DHT22;38340;52.964;6.086;2023-05-10T03:17:15;12.10;99.90
52415;DHT22;38340;52.964;6.086;2023-05-10T03:19:57;12.10;99.90
52415;DHT22;38340;52.964;6.086;2023-05-10T03:22:26;12.10;99.90
52415;DHT22;38340;52.964;6.086;2023-05-10T03:24:55;12.00;99.90
52415;DHT22;38340;52.964;6.086;2023-05-10T03:27:23;12.10;99.90
52415;DHT22;38340;52.964;6.086;2023-05-10T03:29:51;12.10;99.90
52415;DHT22;38340;52.964;6.086;2023-05-10T03:32:17;12.00;99.90
52415;DHT22;38340;52.964;6.086;2023-05-10T03:34:43;12.10;99.90
52415;DHT22;38340;52.964;6.086;2023-05-10T03:37:09;12.10;99.90
52415;DHT22;38340;52.964;6.086;2023-05-10T03:39:35;12.20;99.90
52415;DHT22;38340;52.964;6.086;2023-05-10T03:42:00;12.20;99.90
52415;DHT22;38340;52.964;6.086;2023-05-10T03:44:26;12.10;99.90
52415;DHT22;38340;52.964;6.086;2023-05-10T03:46:52;12.10;99.90
52415;DHT22;38340;52.964;6.086;2023-05-10T03:49:17;12.10;99.90
52415;DHT22;38340;52.964;6.086;2023-05-10T03:51:43;12.20;99.90
52415;DHT22;38340;52.964;6.086;2023-05-10T03:54:10;12.10;99.90
52415;DHT22;38340;52.964;6.086;2023-05-10T03:56:35;12.20;99.90
52415;DHT22;38340;52.964;6.086;2023-05-10T03:59:01;12.20;99.90
52415;DHT22;38340;52.964;6.086;2023-05-10T04:01:33;12.20;99.90
52415;DHT22;38340;52.964;6.086;2023-05-10T04:03:58;12.20;99.90
52415;DHT22;38340;52.964;6.086;2023-05-10T04:06:24;12.20;99.90
52415;DHT22;38340;52.964;6.086;2023-05-10T04:08:50;12.10;99.90
52415;DHT22;38340;52.964;6.086;2023-05-10T04:11:15;12.20;99.90
52415;DHT22;38340;52.964;6.086;2023-05-10T04:13:41;12.20;99.90
52415;DHT22;38340;52.964;6.086;2023-05-10T04:16:08;12.10;99.90
52415;DHT22;38340;52.964;6.086;2023-05-10T04:18:34;12.20;99.90
52415;DHT22;38340;52.964;6.086;2023-05-10T04:21:00;12.20;99.90
52415;DHT22;38340;52.964;6.086;2023-05-10T04:23:27;12.20;99.90
52415;DHT22;38340;52.964;6.086;2023-05-10T04:25:59;12.20;99.90
52415;DHT22;38340;52.964;6.086;2023-05-10T04:28:25;12.20;99.90
52415;DHT22;38340;52.964;6.086;2023-05-10T04:30:51;12.10;99.90
52415;DHT22;38340;52.964;6.086;2023-05-10T04:33:16;12.10;99.90
52415;DHT22;38340;52.964;6.086;2023-05-10T04:35:42;12.20;99.90
52415;DHT22;38340;52.964;6.086;2023-05-10T04:38:08;12.10;99.90
52415;DHT22;38340;52.964;6.086;2023-05-10T04:40:33;12.10;99.90
52415;DHT22;38340;52.964;6.086;2023-05-10T04:42:59;12.10;99.90
52415;DHT22;38340;52.964;6.086;2023-05-10T04:45:25;12.10;99.90
52415;DHT22;38340;52.964;6.086;2023-05-10T04:47:51;12.20;99.90
52415;DHT22;38340;52.964;6.086;2023-05-10T04:50:16;12.10;99.90
52415;DHT22;38340;52.964;6.086;2023-05-10T04:52:42;12.10;99.90
52415;DHT22;38340;52.964;6.086;2023-05-10T04:55:08;12.10;99.90
52415;DHT22;38340;52.964;6.086;2023-05-10T04:57:35;12.20;99.90
52415;DHT22;38340;52.964;6.086;2023-05-10T05:00:01;12.20;99.90
52415;DHT22;38340;52.964;6.086;2023-05-10T05:02:27;12.10;99.90
52415;DHT22;38340;52.964;6.086;2023-05-10T05:04:53;12.20;99.90
52415;DHT22;38340;52.964;6.086;2023-05-10T05:07:18;12.10;99.90
52415;DHT22;38340;52.964;6.086;2023-05-10T05:09:44;12.10;99.90
52415;DHT22;38340;52.964;6.086;2023-05-10T05:12:10;12.10;99.90
52415;DHT22;38340;52.964;6.086;2023-05-10T05:14:39;12.10;99.90
52415;DHT22;38340;52.964;6.086;2023-05-10T05:17:05;12.20;99.90
52415;DHT22;38340;52.964;6.086;2023-05-10T05:19:31;12.20;99.90
52415;DHT22;38340;52.964;6.086;2023-05-10T05:21:57;12.20;99.90
52415;DHT22;38340;52.964;6.086;2023-05-10T05:24:22;12.10;99.90
52415;DHT22;38340;52.964;6.086;2023-05-10T05:26:48;12.20;99.90
52415;DHT22;38340;52.964;6.086;2023-05-10T05:29:14;12.20;99.90
52415;DHT22;38340;52.964;6.086;2023-05-10T05:31:39;12.20;99.90
52415;DHT22;38340;52.964;6.086;2023-05-10T05:34:05;12.30;99.90
52415;DHT22;38340;52.964;6.086;2023-05-10T05:36:31;12.20;99.90
52415;DHT22;38340;52.964;6.086;2023-05-10T05:38:57;12.30;99.90
52415;DHT22;38340;52.964;6.086;2023-05-10T05:41:23;12.30;99.90
52415;DHT22;38340;52.964;6.086;2023-05-10T05:43:50;12.20;99.90
52415;DHT22;38340;52.964;6.086;2023-05-10T05:46:15;12.40;99.90
52415;DHT22;38340;52.964;6.086;2023-05-10T05:48:41;12.30;99.90
52415;DHT22;38340;52.964;6.086;2023-05-10T05:51:06;12.40;99.90
52415;DHT22;38340;52.964;6.086;2023-05-10T05:53:33;12.40;99.90
52415;DHT22;38340;52.964;6.086;2023-05-10T05:55:59;12.30;99.90
52415;DHT22;38340;52.964;6.086;2023-05-10T05:58:25;12.30;99.90
52415;DHT22;38340;52.964;6.086;2023-05-10T06:00:51;12.30;99.90
52415;DHT22;38340;52.964;6.086;2023-05-10T06:03:18;12.40;99.90
52415;DHT22;38340;52.964;6.086;2023-05-10T06:05:44;12.40;99.90
52415;DHT22;38340;52.964;6.086;2023-05-10T06:08:09;12.40;99.90
52415;DHT22;38340;52.964;6.086;2023-05-10T06:10:36;12.40;99.90
52415;DHT22;38340;52.964;6.086;2023-05-10T06:13:02;12.30;99.90
52415;DHT22;38340;52.964;6.086;2023-05-10T06:15:27;12.30;99.90
52415;DHT22;38340;52.964;6.086;2023-05-10T06:17:53;12.30;99.90
52415;DHT22;38340;52.964;6.086;2023-05-10T06:20:19;12.30;99.90
52415;DHT22;38340;52.964;6.086;2023-05-10T06:22:45;12.20;99.90
52415;DHT22;38340;52.964;6.086;2023-05-10T06:25:10;12.30;99.90
52415;DHT22;38340;52.964;6.086;2023-05-10T06:27:37;12.30;99.90
52415;DHT22;38340;52.964;6.086;2023-05-10T06:30:02;12.40;99.90
52415;DHT22;38340;52.964;6.086;2023-05-10T06:32:29;12.40;99.90
52415;DHT22;38340;52.964;6.086;2023-05-10T06:34:54;12.40;99.90
52415;DHT22;38340;52.964;6.086;2023-05-10T06:37:20;12.30;99.90
52415;DHT22;38340;52.964;6.086;2023-05-10T06:39:46;12.40;99.90
52415;DHT22;38340;52.964;6.086;2023-05-10T06:42:11;12.30;99.90
52415;DHT22;38340;52.964;6.086;2023-05-10T06:44:37;12.40;99.90
52415;DHT22;38340;52.964;6.086;2023-05-10T06:47:03;12.30;99.90
52415;DHT22;38340;52.964;6.086;2023-05-10T06:49:28;12.30;99.90
52415;DHT22;38340;52.964;6.086;2023-05-10T06:51:55;12.30;99.90
52415;DHT22;38340;52.964;6.086;2023-05-10T06:54:21;12.40;99.90
52415;DHT22;38340;52.964;6.086;2023-05-10T06:56:47;12.40;99.90
52415;DHT22;38340;52.964;6.086;2023-05-10T06:59:12;12.30;99.90
52415;DHT22;38340;52.964;6.086;2023-05-10T07:01:39;12.30;99.90
52415;DHT22;38340;52.964;6.086;2023-05-10T07:04:05;12.30;99.90
52415;DHT22;38340;52.964;6.086;2023-05-10T07:06:32;12.40;99.90
52415;DHT22;38340;52.964;6.086;2023-05-10T07:08:59;12.50;99.90
52415;DHT22;38340;52.964;6.086;2023-05-10T07:11:24;12.50;99.90
52415;DHT22;38340;52.964;6.086;2023-05-10T07:13:50;12.50;99.90
52415;DHT22;38340;52.964;6.086;2023-05-10T07:16:16;12.50;99.90
52415;DHT22;38340;52.964;6.086;2023-05-10T07:18:41;12.60;99.90
52415;DHT22;38340;52.964;6.086;2023-05-10T07:21:07;12.60;99.90
52415;DHT22;38340;52.964;6.086;2023-05-10T07:23:33;12.60;99.90
52415;DHT22;38340;52.964;6.086;2023-05-10T07:25:58;12.50;99.90
52415;DHT22;38340;52.964;6.086;2023-05-10T07:28:24;12.60;99.90
52415;DHT22;38340;52.964;6.086;2023-05-10T07:30:50;12.60;99.90
52415;DHT22;38340;52.964;6.086;2023-05-10T07:33:16;12.60;99.90
52415;DHT22;38340;52.964;6.086;2023-05-10T07:35:43;12.70;99.90
52415;DHT22;38340;52.964;6.086;2023-05-10T07:38:08;12.70;99.90
52415;DHT22;38340;52.964;6.086;2023-05-10T07:40:36;12.70;99.90
52415;DHT22;38340;52.964;6.086;2023-05-10T07:43:02;12.60;99.90
52415;DHT22;38340;52.964;6.086;2023-05-10T07:45:28;12.70;99.90
52415;DHT22;38340;52.964;6.086;2023-05-10T07:47:54;12.70;99.90
52415;DHT22;38340;52.964;6.086;2023-05-10T07:50:20;12.60;99.90
52415;DHT22;38340;52.964;6.086;2023-05-10T07:52:47;12.60;99.90
52415;DHT22;38340;52.964;6.086;2023-05-10T07:55:13;12.50;99.90
52415;DHT22;38340;52.964;6.086;2023-05-10T07:57:39;12.60;99.90
52415;DHT22;38340;52.964;6.086;2023-05-10T08:00:06;12.50;99.90
52415;DHT22;38340;52.964;6.086;2023-05-10T08:02:34;12.50;99.90
52415;DHT22;38340;52.964;6.086;2023-05-10T08:05:00;12.50;99.90
52415;DHT22;38340;52.964;6.086;2023-05-10T08:07:26;12.50;99.90
52415;DHT22;38340;52.964;6.086;2023-05-10T08:09:51;12.50;99.90
52415;DHT22;38340;52.964;6.086;2023-05-10T08:12:17;12.50;99.90
52415;DHT22;38340;52.964;6.086;2023-05-10T08:14:43;12.50;99.90
52415;DHT22;38340;52.964;6.086;2023-05-10T08:17:08;12.60;99.90
52415;DHT22;38340;52.964;6.086;2023-05-10T08:19:34;12.60;99.90
52415;DHT22;38340;52.964;6.086;2023-05-10T08:22:00;12.60;99.90
52415;DHT22;38340;52.964;6.086;2023-05-10T08:24:26;12.60;99.90
52415;DHT22;38340;52.964;6.086;2023-05-10T08:26:51;12.60;99.90
52415;DHT22;38340;52.964;6.086;2023-05-10T08:29:17;12.70;99.90
52415;DHT22;38340;52.964;6.086;2023-05-10T08:31:43;12.60;99.90
52415;DHT22;38340;52.964;6.086;2023-05-10T08:34:08;12.80;99.90
52415;DHT22;38340;52.964;6.086;2023-05-10T08:36:34;12.80;99.90
52415;DHT22;38340;52.964;6.086;2023-05-10T08:39:00;12.90;99.90
52415;DHT22;38340;52.964;6.086;2023-05-10T08:41:26;13.00;99.90
52415;DHT22;38340;52.964;6.086;2023-05-10T08:43:55;13.10;99.90
52415;DHT22;38340;52.964;6.086;2023-05-10T08:46:22;13.10;99.90
52415;DHT22;38340;52.964;6.086;2023-05-10T08:48:50;13.20;99.90
52415;DHT22;38340;52.964;6.086;2023-05-10T08:51:23;13.40;99.90
52415;DHT22;38340;52.964;6.086;2023-05-10T08:53:52;13.50;99.90
52415;DHT22;38340;52.964;6.086;2023-05-10T08:56:17;13.70;99.90
52415;DHT22;38340;52.964;6.086;2023-05-10T08:58:43;13.70;99.90
52415;DHT22;38340;52.964;6.086;2023-05-10T09:01:09;14.00;99.90
52415;DHT22;38340;52.964;6.086;2023-05-10T09:03:38;14.10;99.90
52415;DHT22;38340;52.964;6.086;2023-05-10T09:06:04;14.20;99.90
52415;DHT22;38340;52.964;6.086;2023-05-10T09:08:30;14.30;99.90
52415;DHT22;38340;52.964;6.086;2023-05-10T09:10:56;14.20;99.90
52415;DHT22;38340;52.964;6.086;2023-05-10T09:13:23;14.20;99.90
52415;DHT22;38340;52.964;6.086;2023-05-10T09:15:50;14.30;99.90
52415;DHT22;38340;52.964;6.086;2023-05-10T09:18:16;14.40;99.90
52415;DHT22;38340;52.964;6.086;2023-05-10T09:20:42;14.40;99.90
52415;DHT22;38340;52.964;6.086;2023-05-10T09:23:08;14.40;99.90
52415;DHT22;38340;52.964;6.086;2023-05-10T09:25:34;14.40;99.90
52415;DHT22;38340;52.964;6.086;2023-05-10T09:28:00;14.40;99.90
52415;DHT22;38340;52.964;6.086;2023-05-10T09:30:28;14.30;99.90
52415;DHT22;38340;52.964;6.086;2023-05-10T09:32:54;14.40;99.90
52415;DHT22;38340;52.964;6.086;2023-05-10T09:35:23;14.60;99.90
52415;DHT22;38340;52.964;6.086;2023-05-10T09:37:51;14.70;99.90
52415;DHT22;38340;52.964;6.086;2023-05-10T09:40:22;14.70;99.90
52415;DHT22;38340;52.964;6.086;2023-05-10T09:45:22;14.80;99.90
52415;DHT22;38340;52.964;6.086;2023-05-10T09:47:48;14.90;99.90
52415;DHT22;38340;52.964;6.086;2023-05-10T09:50:14;14.80;99.90
52415;DHT22;38340;52.964;6.086;2023-05-10T09:52:49;14.80;99.90
52415;DHT22;38340;52.964;6.086;2023-05-10T09:55:19;14.90;99.90
52415;DHT22;38340;52.964;6.086;2023-05-10T09:57:46;15.00;99.90
52415;DHT22;38340;52.964;6.086;2023-05-10T10:00:20;15.10;99.90
52415;DHT22;38340;52.964;6.086;2023-05-10T10:02:56;15.10;99.90
52415;DHT22;38340;52.964;6.086;2023-05-10T10:05:44;15.20;99.90
52415;DHT22;38340;52.964;6.086;2023-05-10T10:08:12;15.30;99.90
52415;DHT22;38340;52.964;6.086;2023-05-10T10:10:38;15.20;99.90
52415;DHT22;38340;52.964;6.086;2023-05-10T10:13:06;15.30;99.90
52415;DHT22;38340;52.964;6.086;2023-05-10T10:15:33;15.30;99.90
52415;DHT22;38340;52.964;6.086;2023-05-10T10:17:59;15.30;99.90
52415;DHT22;38340;52.964;6.086;2023-05-10T10:20:26;15.40;99.90
52415;DHT22;38340;52.964;6.086;2023-05-10T10:22:52;15.60;99.90
52415;DHT22;38340;52.964;6.086;2023-05-10T10:25:19;15.50;99.90
52415;DHT22;38340;52.964;6.086;2023-05-10T10:28:10;15.50;99.90
52415;DHT22;38340;52.964;6.086;2023-05-10T10:30:43;15.50;99.90
52415;DHT22;38340;52.964;6.086;2023-05-10T10:36:15;15.50;99.90
52415;DHT22;38340;52.964;6.086;2023-05-10T10:41:33;15.70;99.90
52415;DHT22;38340;52.964;6.086;2023-05-10T10:47:07;15.70;99.90
52415;DHT22;38340;52.964;6.086;2023-05-10T10:52:27;15.90;99.90
52415;DHT22;38340;52.964;6.086;2023-05-10T10:55:06;15.90;99.90
52415;DHT22;38340;52.964;6.086;2023-05-10T10:57:54;15.80;99.90
52415;DHT22;38340;52.964;6.086;2023-05-10T11:00:26;15.80;99.90
52415;DHT22;38340;52.964;6.086;2023-05-10T11:07:58;15.80;99.90
52415;DHT22;38340;52.964;6.086;2023-05-10T11:10:25;15.90;99.90
52415;DHT22;38340;52.964;6.086;2023-05-10T11:13:06;15.80;99.90
52415;DHT22;38340;52.964;6.086;2023-05-10T11:15:33;15.80;99.90
52415;DHT22;38340;52.964;6.086;2023-05-10T11:18:00;15.90;99.90
52415;DHT22;38340;52.964;6.086;2023-05-10T11:20:41;15.70;99.90
52415;DHT22;38340;52.964;6.086;2023-05-10T11:23:14;15.50;99.90
52415;DHT22;38340;52.964;6.086;2023-05-10T11:25:44;15.40;99.90
52415;DHT22;38340;52.964;6.086;2023-05-10T11:28:11;15.30;99.90
52415;DHT22;38340;52.964;6.086;2023-05-10T11:30:41;15.20;99.90
52415;DHT22;38340;52.964;6.086;2023-05-10T11:33:07;15.10;99.90
52415;DHT22;38340;52.964;6.086;2023-05-10T11:35:38;14.90;99.90
52415;DHT22;38340;52.964;6.086;2023-05-10T11:38:11;14.80;99.90
52415;DHT22;38340;52.964;6.086;2023-05-10T11:40:37;14.90;99.90
52415;DHT22;38340;52.964;6.086;2023-05-10T11:43:04;14.80;99.90
52415;DHT22;38340;52.964;6.086;2023-05-10T11:45:34;14.90;99.90
52415;DHT22;38340;52.964;6.086;2023-05-10T11:48:01;14.90;99.90
52415;DHT22;38340;52.964;6.086;2023-05-10T11:50:28;15.00;99.90
52415;DHT22;38340;52.964;6.086;2023-05-10T11:52:57;15.00;99.90
52415;DHT22;38340;52.964;6.086;2023-05-10T11:55:24;15.10;99.90
52415;DHT22;38340;52.964;6.086;2023-05-10T11:57:53;15.20;99.90
52415;DHT22;38340;52.964;6.086;2023-05-10T12:00:19;15.30;99.90
52415;DHT22;38340;52.964;6.086;2023-05-10T12:02:45;15.30;99.90
52415;DHT22;38340;52.964;6.086;2023-05-10T12:05:11;15.30;99.90
52415;DHT22;38340;52.964;6.086;2023-05-10T12:07:37;15.30;99.90
52415;DHT22;38340;52.964;6.086;2023-05-10T12:10:13;15.30;99.90
52415;DHT22;38340;52.964;6.086;2023-05-10T12:12:45;15.40;99.90
52415;DHT22;38340;52.964;6.086;2023-05-10T12:15:17;15.50;99.90
52415;DHT22;38340;52.964;6.086;2023-05-10T12:17:44;15.50;99.90
52415;DHT22;38340;52.964;6.086;2023-05-10T12:20:20;15.30;99.90
52415;DHT22;38340;52.964;6.086;2023-05-10T12:22:51;15.30;99.90
52415;DHT22;38340;52.964;6.086;2023-05-10T12:25:21;15.30;99.90
52415;DHT22;38340;52.964;6.086;2023-05-10T12:27:52;15.30;99.90
52415;DHT22;38340;52.964;6.086;2023-05-10T12:30:26;15.30;99.90
52415;DHT22;38340;52.964;6.086;2023-05-10T12:32:53;15.40;99.90
52415;DHT22;38340;52.964;6.086;2023-05-10T12:35:19;15.40;99.90
52415;DHT22;38340;52.964;6.086;2023-05-10T12:37:47;15.50;99.90
52415;DHT22;38340;52.964;6.086;2023-05-10T12:40:14;15.40;99.90
52415;DHT22;38340;52.964;6.086;2023-05-10T12:42:40;15.40;99.90
52415;DHT22;38340;52.964;6.086;2023-05-10T12:45:06;15.20;99.90
52415;DHT22;38340;52.964;6.086;2023-05-10T12:47:33;15.20;99.90
52415;DHT22;38340;52.964;6.086;2023-05-10T12:50:00;15.20;99.90
52415;DHT22;38340;52.964;6.086;2023-05-10T12:52:27;15.20;99.90
52415;DHT22;38340;52.964;6.086;2023-05-10T12:54:53;15.30;99.90
52415;DHT22;38340;52.964;6.086;2023-05-10T12:57:20;15.50;99.90
52415;DHT22;38340;52.964;6.086;2023-05-10T12:59:46;15.50;99.90
52415;DHT22;38340;52.964;6.086;2023-05-10T13:02:11;15.50;99.90
52415;DHT22;38340;52.964;6.086;2023-05-10T13:04:37;15.70;99.90
52415;DHT22;38340;52.964;6.086;2023-05-10T13:07:08;15.70;99.90
52415;DHT22;38340;52.964;6.086;2023-05-10T13:09:34;15.60;99.90
52415;DHT22;38340;52.964;6.086;2023-05-10T13:12:00;15.70;99.90
52415;DHT22;38340;52.964;6.086;2023-05-10T13:14:26;15.80;99.90
52415;DHT22;38340;52.964;6.086;2023-05-10T13:16:52;15.90;99.90
52415;DHT22;38340;52.964;6.086;2023-05-10T13:19:18;16.10;99.90
52415;DHT22;38340;52.964;6.086;2023-05-10T13:21:44;16.20;99.90
52415;DHT22;38340;52.964;6.086;2023-05-10T13:24:10;16.30;99.90
52415;DHT22;38340;52.964;6.086;2023-05-10T13:26:42;16.20;99.90
52415;DHT22;38340;52.964;6.086;2023-05-10T13:29:08;16.00;99.90
52415;DHT22;38340;52.964;6.086;2023-05-10T13:31:34;16.10;99.90
52415;DHT22;38340;52.964;6.086;2023-05-10T13:34:00;16.10;99.90
52415;DHT22;38340;52.964;6.086;2023-05-10T13:36:26;16.00;99.90
52415;DHT22;38340;52.964;6.086;2023-05-10T13:38:51;16.00;99.90
52415;DHT22;38340;52.964;6.086;2023-05-10T13:41:17;16.00;99.90
52415;DHT22;38340;52.964;6.086;2023-05-10T13:43:43;15.80;99.90
52415;DHT22;38340;52.964;6.086;2023-05-10T13:46:09;15.60;99.90
52415;DHT22;38340;52.964;6.086;2023-05-10T13:48:34;15.60;99.90
52415;DHT22;38340;52.964;6.086;2023-05-10T13:51:02;15.50;99.90
52415;DHT22;38340;52.964;6.086;2023-05-10T13:53:28;15.50;99.90
52415;DHT22;38340;52.964;6.086;2023-05-10T13:55:54;15.50;99.90
52415;DHT22;38340;52.964;6.086;2023-05-10T13:58:19;15.60;99.90
52415;DHT22;38340;52.964;6.086;2023-05-10T14:00:45;15.70;99.90
52415;DHT22;38340;52.964;6.086;2023-05-10T14:03:11;15.80;99.90
52415;DHT22;38340;52.964;6.086;2023-05-10T14:05:37;15.90;99.90
52415;DHT22;38340;52.964;6.086;2023-05-10T14:08:02;16.00;99.90
52415;DHT22;38340;52.964;6.086;2023-05-10T14:10:29;16.20;99.90
52415;DHT22;38340;52.964;6.086;2023-05-10T14:12:55;16.30;99.90
52415;DHT22;38340;52.964;6.086;2023-05-10T14:15:21;16.50;99.90
52415;DHT22;38340;52.964;6.086;2023-05-10T14:17:47;16.70;99.90
52415;DHT22;38340;52.964;6.086;2023-05-10T14:20:13;16.60;99.90
52415;DHT22;38340;52.964;6.086;2023-05-10T14:22:38;16.70;99.90
52415;DHT22;38340;52.964;6.086;2023-05-10T14:25:04;16.70;99.90
52415;DHT22;38340;52.964;6.086;2023-05-10T14:27:31;16.80;99.90
52415;DHT22;38340;52.964;6.086;2023-05-10T14:29:57;16.70;99.90
52415;DHT22;38340;52.964;6.086;2023-05-10T14:32:23;16.80;99.90
52415;DHT22;38340;52.964;6.086;2023-05-10T14:34:49;16.70;99.90
52415;DHT22;38340;52.964;6.086;2023-05-10T14:37:15;16.60;99.90
52415;DHT22;38340;52.964;6.086;2023-05-10T14:39:41;16.60;99.90
52415;DHT22;38340;52.964;6.086;2023-05-10T14:42:08;16.70;99.90
52415;DHT22;38340;52.964;6.086;2023-05-10T14:44:34;16.70;99.90
52415;DHT22;38340;52.964;6.086;2023-05-10T14:47:00;16.80;99.90
52415;DHT22;38340;52.964;6.086;2023-05-10T14:49:26;16.80;99.90
52415;DHT22;38340;52.964;6.086;2023-05-10T14:51:52;16.80;99.90
52415;DHT22;38340;52.964;6.086;2023-05-10T14:54:17;16.70;99.90
52415;DHT22;38340;52.964;6.086;2023-05-10T14:56:43;16.70;99.90
52415;DHT22;38340;52.964;6.086;2023-05-10T14:59:09;16.60;99.90
52415;DHT22;38340;52.964;6.086;2023-05-10T15:01:35;16.60;99.90
52415;DHT22;38340;52.964;6.086;2023-05-10T15:04:03;16.50;99.90
52415;DHT22;38340;52.964;6.086;2023-05-10T15:06:33;16.50;99.90
52415;DHT22;38340;52.964;6.086;2023-05-10T15:09:00;16.30;99.90
52415;DHT22;38340;52.964;6.086;2023-05-10T15:11:26;16.30;99.90
52415;DHT22;38340;52.964;6.086;2023-05-10T15:13:52;16.20;99.90
52415;DHT22;38340;52.964;6.086;2023-05-10T15:16:17;16.10;99.90
52415;DHT22;38340;52.964;6.086;2023-05-10T15:18:43;16.10;99.90
52415;DHT22;38340;52.964;6.086;2023-05-10T15:21:09;16.00;99.90
52415;DHT22;38340;52.964;6.086;2023-05-10T15:23:35;15.90;99.90
52415;DHT22;38340;52.964;6.086;2023-05-10T15:26:01;15.90;99.90
52415;DHT22;38340;52.964;6.086;2023-05-10T15:28:26;15.90;99.90
52415;DHT22;38340;52.964;6.086;2023-05-10T15:30:52;15.90;99.90
52415;DHT22;38340;52.964;6.086;2023-05-10T15:33:18;15.70;99.90
52415;DHT22;38340;52.964;6.086;2023-05-10T15:35:43;15.70;99.90
52415;DHT22;38340;52.964;6.086;2023-05-10T15:38:09;15.70;99.90
52415;DHT22;38340;52.964;6.086;2023-05-10T15:40:35;15.60;99.90
52415;DHT22;38340;52.964;6.086;2023-05-10T15:43:01;15.70;99.90
52415;DHT22;38340;52.964;6.086;2023-05-10T15:45:27;15.60;99.90
52415;DHT22;38340;52.964;6.086;2023-05-10T15:47:53;15.70;99.90
52415;DHT22;38340;52.964;6.086;2023-05-10T15:50:18;15.70;99.90
52415;DHT22;38340;52.964;6.086;2023-05-10T15:52:44;15.70;99.90
52415;DHT22;38340;52.964;6.086;2023-05-10T15:55:10;15.70;99.90
52415;DHT22;38340;52.964;6.086;2023-05-10T15:57:39;15.70;99.90